createdAt,value
2022-07-29T00:01:03.643Z,101181.63
2022-07-29T00:03:30.220Z,101175.06
2022-07-29T00:05:56.833Z,101177.53
2022-07-29T00:08:23.570Z,101166.91
2022-07-29T00:10:50.998Z,101155.56
2022-07-29T00:13:17.669Z,101159.53
2022-07-29T00:15:44.201Z,101170.44
2022-07-29T00:18:10.680Z,101172.59
2022-07-29T00:20:37.176Z,101166.31
2022-07-29T00:23:03.758Z,101168.00
2022-07-29T00:25:30.276Z,101165.19
2022-07-29T00:27:57.349Z,101159.38
2022-07-29T00:30:24.208Z,101163.28
2022-07-29T00:32:50.730Z,101161.28
2022-07-29T00:35:35.843Z,101158.91
2022-07-29T00:38:02.331Z,101165.00
2022-07-29T00:40:28.891Z,101160.16
2022-07-29T00:42:55.526Z,101153.91
2022-07-29T00:45:23.155Z,101153.09
2022-07-29T00:47:50.232Z,101150.63
2022-07-29T00:50:17.078Z,101133.56
2022-07-29T00:52:44.775Z,101133.31
2022-07-29T00:55:16.905Z,101129.72
2022-07-29T00:57:45.258Z,101127.94
2022-07-29T01:00:22.273Z,101122.47
2022-07-29T01:02:49.308Z,101120.91
2022-07-29T01:05:18.894Z,101107.56
2022-07-29T01:07:46.725Z,101116.31
2022-07-29T01:10:15.686Z,101112.03
2022-07-29T01:12:46.063Z,101104.50
2022-07-29T01:15:13.265Z,101108.25
2022-07-29T01:17:52.699Z,101102.31
2022-07-29T01:20:38.684Z,101108.03
2022-07-29T01:23:08.257Z,101106.16
2022-07-29T01:25:50.727Z,101108.63
2022-07-29T01:28:46.388Z,101105.28
2022-07-29T01:31:25.330Z,101102.81
2022-07-29T01:34:03.413Z,101105.44
2022-07-29T01:36:47.630Z,101098.22
2022-07-29T01:39:27.176Z,101091.03
2022-07-29T01:42:11.057Z,101087.22
2022-07-29T01:44:46.645Z,101083.31
2022-07-29T01:47:16.582Z,101075.47
2022-07-29T01:49:51.016Z,101072.41
2022-07-29T01:52:40.750Z,101072.41
2022-07-29T01:55:14.539Z,101074.00
2022-07-29T01:57:44.107Z,101072.56
2022-07-29T02:00:12.035Z,101066.16
2022-07-29T02:02:42.122Z,101064.59
2022-07-29T02:05:13.634Z,101067.84
2022-07-29T02:07:41.704Z,101071.88
2022-07-29T02:10:10.341Z,101068.72
2022-07-29T02:12:38.323Z,101071.22
2022-07-29T02:15:07.442Z,101063.34
2022-07-29T02:17:59.685Z,101065.38
2022-07-29T02:20:27.741Z,101064.91
2022-07-29T02:22:56.619Z,101069.88
2022-07-29T02:25:25.368Z,101059.53
2022-07-29T02:28:05.224Z,101066.41
2022-07-29T02:30:33.136Z,101063.25
2022-07-29T02:33:00.405Z,101069.22
2022-07-29T02:35:27.825Z,101070.47
2022-07-29T02:38:21.481Z,101078.88
2022-07-29T02:40:49.298Z,101059.69
2022-07-29T02:43:16.703Z,101060.94
2022-07-29T02:45:44.328Z,101060.13
2022-07-29T02:48:16.063Z,101062.59
2022-07-29T02:50:51.043Z,101065.63
2022-07-29T02:53:27.663Z,101063.72
2022-07-29T02:56:00.465Z,101065.78
2022-07-29T02:58:39.413Z,101058.69
2022-07-29T03:01:19.342Z,101061.41
2022-07-29T03:03:50.478Z,101060.50
2022-07-29T03:06:30.974Z,101068.47
2022-07-29T03:09:12.304Z,101058.03
2022-07-29T03:11:47.710Z,101062.84
2022-07-29T03:14:20.375Z,101060.06
2022-07-29T03:16:48.504Z,101066.00
2022-07-29T03:19:15.515Z,101075.19
2022-07-29T03:21:42.062Z,101073.28
2022-07-29T03:24:10.760Z,101070.63
2022-07-29T03:26:37.976Z,101071.72
2022-07-29T03:29:04.561Z,101066.47
2022-07-29T03:31:32.087Z,101073.63
2022-07-29T03:34:00.294Z,101081.72
2022-07-29T03:36:26.882Z,101088.81
2022-07-29T03:38:53.836Z,101089.03
2022-07-29T03:41:23.707Z,101107.31
2022-07-29T03:43:52.769Z,101109.78
2022-07-29T03:46:24.296Z,101099.59
2022-07-29T03:48:57.526Z,101093.41
2022-07-29T03:51:33.663Z,101116.44
2022-07-29T03:54:13.846Z,101106.19
2022-07-29T03:56:48.935Z,101103.59
2022-07-29T03:59:17.825Z,101093.84
2022-07-29T04:01:44.925Z,101094.97
2022-07-29T04:04:13.090Z,101106.53
2022-07-29T04:06:44.579Z,101122.34
2022-07-29T04:09:12.947Z,101112.81
2022-07-29T04:11:59.843Z,101109.56
2022-07-29T04:14:27.269Z,101103.50
2022-07-29T04:16:54.063Z,101111.50
2022-07-29T04:19:20.668Z,101117.53
2022-07-29T04:21:47.202Z,101127.75
2022-07-29T04:24:14.177Z,101127.50
2022-07-29T04:26:40.876Z,101119.97
2022-07-29T04:29:07.687Z,101135.13
2022-07-29T04:31:34.291Z,101162.56
2022-07-29T04:34:00.907Z,101160.19
2022-07-29T04:36:29.401Z,101164.34
2022-07-29T04:38:56.867Z,101180.13
2022-07-29T04:41:23.401Z,101177.09
2022-07-29T04:44:01.751Z,101188.56
2022-07-29T04:46:28.574Z,101171.72
2022-07-29T04:48:55.273Z,101159.63
2022-07-29T04:51:22.107Z,101159.88
2022-07-29T04:53:48.835Z,101163.44
2022-07-29T04:56:15.423Z,101172.41
2022-07-29T04:58:41.993Z,101175.41
2022-07-29T05:01:08.640Z,101168.44
2022-07-29T05:03:35.243Z,101137.81
2022-07-29T05:06:01.969Z,101131.47
2022-07-29T05:08:28.546Z,101140.78
2022-07-29T05:10:55.160Z,101141.41
2022-07-29T05:13:21.670Z,101161.28
2022-07-29T05:15:48.227Z,101159.56
2022-07-29T05:18:15.104Z,101149.69
2022-07-29T05:20:41.886Z,101149.16
2022-07-29T05:23:08.652Z,101157.13
2022-07-29T05:25:42.958Z,101154.59
2022-07-29T05:28:14.214Z,101152.91
2022-07-29T05:30:40.902Z,101154.78
2022-07-29T05:33:07.404Z,101152.75
2022-07-29T05:35:35.834Z,101151.09
2022-07-29T05:38:02.345Z,101145.84
2022-07-29T05:40:28.863Z,101148.19
2022-07-29T05:42:55.722Z,101149.75
2022-07-29T05:45:25.530Z,101140.91
2022-07-29T05:47:52.102Z,101141.28
2022-07-29T05:50:18.779Z,101153.63
2022-07-29T05:52:45.273Z,101156.16
2022-07-29T05:55:12.170Z,101151.78
2022-07-29T05:57:38.678Z,101153.81
2022-07-29T06:00:05.954Z,101153.19
2022-07-29T06:02:32.530Z,101155.56
2022-07-29T06:04:59.095Z,101157.47
2022-07-29T06:07:25.663Z,101149.44
2022-07-29T06:09:52.140Z,101144.50
2022-07-29T06:12:18.726Z,101141.59
2022-07-29T06:14:45.228Z,101128.75
2022-07-29T06:17:12.650Z,101131.00
2022-07-29T06:19:39.183Z,101127.66
2022-07-29T06:22:05.857Z,101129.91
2022-07-29T06:24:32.557Z,101125.09
2022-07-29T06:26:59.081Z,101127.78
2022-07-29T06:29:25.834Z,101128.84
2022-07-29T06:31:52.438Z,101131.78
2022-07-29T06:34:20.088Z,101137.19
2022-07-29T06:36:47.446Z,101141.91
2022-07-29T06:39:14.884Z,101135.50
2022-07-29T06:41:41.572Z,101142.25
2022-07-29T06:44:08.115Z,101144.59
2022-07-29T06:46:34.869Z,101126.88
2022-07-29T06:49:02.625Z,101128.00
2022-07-29T06:51:29.691Z,101131.50
2022-07-29T06:53:59.046Z,101120.97
2022-07-29T06:56:39.556Z,101125.34
2022-07-29T06:59:08.096Z,101118.84
2022-07-29T07:01:34.800Z,101137.63
2022-07-29T07:04:01.440Z,101132.69
2022-07-29T07:06:28.439Z,101135.38
2022-07-29T07:08:55.042Z,101152.47
2022-07-29T07:11:21.738Z,101158.75
2022-07-29T07:13:48.284Z,101163.47
2022-07-29T07:16:15.127Z,101175.25
2022-07-29T07:18:41.708Z,101177.16
2022-07-29T07:21:08.352Z,101180.84
2022-07-29T07:23:34.861Z,101181.88
2022-07-29T07:26:01.435Z,101190.00
2022-07-29T07:28:27.963Z,101178.84
2022-07-29T07:30:54.485Z,101181.13
2022-07-29T07:33:21.161Z,101188.06
2022-07-29T07:35:47.973Z,101188.28
2022-07-29T07:38:14.674Z,101185.94
2022-07-29T07:40:41.543Z,101182.00
2022-07-29T07:43:08.165Z,101186.38
2022-07-29T07:45:34.829Z,101183.88
2022-07-29T07:48:01.547Z,101191.81
2022-07-29T07:50:28.174Z,101191.13
2022-07-29T07:52:59.428Z,101193.13
2022-07-29T07:55:26.907Z,101200.09
2022-07-29T07:57:54.698Z,101208.22
2022-07-29T08:00:22.824Z,101200.09
2022-07-29T08:02:50.881Z,101202.69
2022-07-29T08:05:18.115Z,101204.00
2022-07-29T08:07:48.184Z,101192.97
2022-07-29T08:10:38.298Z,101198.34
2022-07-29T08:13:09.310Z,101196.78
2022-07-29T08:15:36.359Z,101204.53
2022-07-29T08:18:08.501Z,101202.47
2022-07-29T08:20:36.665Z,101201.38
2022-07-29T08:23:04.003Z,101205.00
2022-07-29T08:25:30.570Z,101213.47
2022-07-29T08:27:57.478Z,101214.81
2022-07-29T08:30:24.004Z,101222.84
2022-07-29T08:32:55.116Z,101217.75
2022-07-29T08:35:23.348Z,101212.75
2022-07-29T08:37:50.326Z,101216.31
2022-07-29T08:40:17.141Z,101213.56
2022-07-29T08:42:43.779Z,101212.38
2022-07-29T08:45:10.727Z,101218.66
2022-07-29T08:47:40.737Z,101214.13
2022-07-29T08:50:11.209Z,101216.16
2022-07-29T08:52:41.861Z,101212.09
2022-07-29T08:55:10.570Z,101201.09
2022-07-29T08:57:39.575Z,101204.22
2022-07-29T09:00:19.220Z,101199.59
2022-07-29T09:02:52.748Z,101201.63
2022-07-29T09:05:20.181Z,101203.66
2022-07-29T09:07:49.045Z,101202.59
2022-07-29T09:10:15.654Z,101202.75
2022-07-29T09:12:42.362Z,101209.06
2022-07-29T09:15:09.298Z,101203.75
2022-07-29T09:17:47.314Z,101205.78
2022-07-29T09:20:17.516Z,101204.34
2022-07-29T09:22:44.643Z,101212.44
2022-07-29T09:25:13.699Z,101215.50
2022-07-29T09:27:40.358Z,101215.50
2022-07-29T09:30:13.322Z,101215.00
2022-07-29T09:33:01.844Z,101214.81
2022-07-29T09:35:29.260Z,101216.03
2022-07-29T09:37:55.904Z,101224.94
2022-07-29T09:40:28.736Z,101219.13
2022-07-29T09:42:58.666Z,101211.59
2022-07-29T09:45:33.718Z,101214.53
2022-07-29T09:48:13.666Z,101207.81
2022-07-29T09:50:41.354Z,101198.38
2022-07-29T09:53:10.459Z,101201.84
2022-07-29T09:55:52.694Z,101196.81
2022-07-29T09:58:21.633Z,101200.22
2022-07-29T10:00:49.752Z,101185.16
2022-07-29T10:03:17.632Z,101176.50
2022-07-29T10:05:45.054Z,101160.22
2022-07-29T10:08:16.189Z,101147.63
2022-07-29T10:10:43.950Z,101144.56
2022-07-29T10:13:15.774Z,101149.19
2022-07-29T10:15:45.317Z,101173.03
2022-07-29T10:18:13.370Z,101173.09
2022-07-29T10:20:40.883Z,101186.34
2022-07-29T10:23:07.499Z,101168.47
2022-07-29T10:25:34.327Z,101174.88
2022-07-29T10:28:00.979Z,101172.88
2022-07-29T10:30:27.946Z,101177.16
2022-07-29T10:33:18.938Z,101171.22
2022-07-29T10:36:08.442Z,101174.13
2022-07-29T10:38:46.005Z,101181.00
2022-07-29T10:41:46.721Z,101184.72
2022-07-29T10:44:23.193Z,101182.34
2022-07-29T10:46:51.683Z,101188.41
2022-07-29T10:49:18.298Z,101182.78
2022-07-29T10:51:57.191Z,101179.97
2022-07-29T10:54:52.498Z,101182.78
2022-07-29T10:57:53.630Z,101189.22
2022-07-29T11:00:16.996Z,101190.66
2022-07-29T11:02:45.282Z,101190.22
2022-07-29T11:05:15.718Z,101200.97
2022-07-29T11:08:19.765Z,101195.72
2022-07-29T11:11:15.745Z,101201.22
2022-07-29T11:13:55.970Z,101196.94
2022-07-29T11:16:24.969Z,101196.06
2022-07-29T11:19:14.414Z,101194.78
2022-07-29T11:22:05.152Z,101201.16
2022-07-29T11:24:33.378Z,101200.66
2022-07-29T11:27:21.099Z,101192.16
2022-07-29T11:30:02.249Z,101199.66
2022-07-29T11:32:41.666Z,101201.06
2022-07-29T11:38:23.329Z,101184.09
2022-07-29T11:41:21.072Z,101191.44
2022-07-29T11:43:50.660Z,101191.56
2022-07-29T11:46:38.794Z,101198.00
2022-07-29T11:49:09.688Z,101199.59
2022-07-29T11:51:38.031Z,101197.66
2022-07-29T11:54:18.175Z,101188.75
2022-07-29T11:56:54.177Z,101180.97
2022-07-29T11:59:22.011Z,101189.19
2022-07-29T12:02:12.080Z,101186.59
2022-07-29T12:04:55.964Z,101185.22
2022-07-29T12:07:01.567Z,101193.25
2022-07-29T12:07:35.164Z,101184.78
2022-07-29T12:10:03.151Z,101189.31
2022-07-29T12:12:29.820Z,101195.00
2022-07-29T12:14:56.483Z,101188.66
2022-07-29T12:17:31.057Z,101188.25
2022-07-29T12:20:01.572Z,101171.72
2022-07-29T12:22:33.766Z,101183.25
2022-07-29T12:25:30.309Z,101183.94
2022-07-29T12:28:03.513Z,101190.84
2022-07-29T12:30:43.004Z,101189.44
2022-07-29T12:33:29.383Z,101187.81
2022-07-29T12:36:07.238Z,101184.50
2022-07-29T12:38:36.760Z,101179.25
2022-07-29T12:41:04.813Z,101187.06
2022-07-29T12:43:32.553Z,101183.22
2022-07-29T12:46:13.805Z,101193.31
2022-07-29T12:48:42.245Z,101187.38
2022-07-29T12:51:10.958Z,101181.91
2022-07-29T12:53:38.110Z,101183.69
2022-07-29T12:56:20.628Z,101183.72
2022-07-29T12:58:52.949Z,101181.41
2022-07-29T13:01:21.829Z,101179.59
2022-07-29T13:04:01.423Z,101178.53
2022-07-29T13:06:35.918Z,101177.44
2022-07-29T13:09:10.065Z,101184.81
2022-07-29T13:11:48.655Z,101180.88
2022-07-29T13:14:34.556Z,101185.63
2022-07-29T13:17:02.574Z,101193.09
2022-07-29T13:19:45.940Z,101189.44
2022-07-29T13:22:14.879Z,101189.19
2022-07-29T13:24:53.778Z,101191.25
2022-07-29T13:27:22.985Z,101198.78
2022-07-29T13:29:52.212Z,101190.22
2022-07-29T13:32:19.581Z,101190.00
2022-07-29T13:34:56.483Z,101183.28
2022-07-29T13:37:23.059Z,101190.19
2022-07-29T13:39:51.355Z,101189.25
2022-07-29T13:42:20.001Z,101183.81
2022-07-29T13:44:46.548Z,101185.91
2022-07-29T13:47:13.685Z,101185.94
2022-07-29T13:49:40.228Z,101183.38
2022-07-29T13:52:08.458Z,101175.66
2022-07-29T13:54:41.952Z,101180.66
2022-07-29T13:57:09.885Z,101177.19
2022-07-29T13:59:36.442Z,101158.09
2022-07-29T14:02:03.824Z,101158.97
2022-07-29T14:04:30.394Z,101161.19
2022-07-29T14:06:56.973Z,101163.75
2022-07-29T14:09:23.883Z,101163.09
2022-07-29T14:11:52.313Z,101152.16
2022-07-29T14:14:18.809Z,101155.41
2022-07-29T14:16:47.833Z,101159.97
2022-07-29T14:19:17.076Z,101156.81
2022-07-29T14:21:43.614Z,101153.91
2022-07-29T14:24:18.050Z,101170.38
2022-07-29T14:26:48.271Z,101161.69
2022-07-29T14:29:15.627Z,101158.78
2022-07-29T14:31:44.069Z,101161.97
2022-07-29T14:34:10.684Z,101165.56
2022-07-29T14:36:37.273Z,101163.94
2022-07-29T14:39:04.124Z,101164.31
2022-07-29T14:41:30.745Z,101162.13
2022-07-29T14:43:57.517Z,101154.00
2022-07-29T14:46:24.201Z,101158.41
2022-07-29T14:48:50.802Z,101163.38
2022-07-29T14:51:17.333Z,101163.84
2022-07-29T14:53:44.385Z,101164.03
2022-07-29T14:56:35.409Z,101164.81
2022-07-29T14:58:58.311Z,101161.13
2022-07-29T15:01:25.623Z,101164.31
2022-07-29T15:03:55.763Z,101173.09
2022-07-29T15:06:26.310Z,101166.31
2022-07-29T15:08:52.821Z,101162.78
2022-07-29T15:11:19.400Z,101157.06
2022-07-29T15:13:46.090Z,101162.97
2022-07-29T15:16:12.751Z,101160.34
2022-07-29T15:18:39.496Z,101163.72
2022-07-29T15:21:07.829Z,101162.75
2022-07-29T15:23:37.361Z,101164.59
2022-07-29T15:26:04.865Z,101161.63
2022-07-29T15:28:31.603Z,101163.00
2022-07-29T15:30:58.342Z,101158.94
2022-07-29T15:33:24.935Z,101154.41
2022-07-29T15:35:51.507Z,101147.66
2022-07-29T15:38:18.311Z,101152.56
2022-07-29T15:40:46.499Z,101151.81
2022-07-29T15:43:13.185Z,101149.53
2022-07-29T15:45:42.052Z,101161.97
2022-07-29T15:48:10.138Z,101145.88
2022-07-29T15:50:41.332Z,101157.28
2022-07-29T15:53:07.977Z,101153.66
2022-07-29T15:55:34.700Z,101145.91
2022-07-29T15:58:01.222Z,101145.31
2022-07-29T16:00:27.888Z,101147.91
2022-07-29T16:02:54.456Z,101148.97
2022-07-29T16:05:21.008Z,101151.41
2022-07-29T16:07:47.570Z,101154.44
2022-07-29T16:10:15.527Z,101150.41
2022-07-29T16:12:42.136Z,101146.59
2022-07-29T16:15:10.377Z,101147.38
2022-07-29T16:17:38.264Z,101145.84
2022-07-29T16:20:06.201Z,101141.47
2022-07-29T16:22:32.847Z,101148.88
2022-07-29T16:24:59.403Z,101149.91
2022-07-29T16:27:35.698Z,101146.88
2022-07-29T16:30:06.366Z,101144.78
2022-07-29T16:32:33.489Z,101146.38
2022-07-29T16:35:02.069Z,101148.94
2022-07-29T16:37:33.478Z,101150.53
2022-07-29T16:40:00.304Z,101141.19
2022-07-29T16:42:45.685Z,101146.31
2022-07-29T16:45:13.665Z,101139.88
2022-07-29T16:47:40.788Z,101140.41
2022-07-29T16:50:08.564Z,101138.84
2022-07-29T16:52:36.032Z,101150.53
2022-07-29T16:55:02.631Z,101147.13
2022-07-29T16:57:29.186Z,101147.66
2022-07-29T16:59:55.735Z,101153.34
2022-07-29T17:02:22.384Z,101146.03
2022-07-29T17:04:48.913Z,101153.78
2022-07-29T17:07:16.012Z,101162.56
2022-07-29T17:09:42.575Z,101148.81
2022-07-29T17:12:09.493Z,101150.91
2022-07-29T17:14:36.018Z,101155.78
2022-07-29T17:17:03.270Z,101158.97
2022-07-29T17:19:33.580Z,101158.38
2022-07-29T17:22:09.405Z,101156.50
2022-07-29T17:24:38.836Z,101165.53
2022-07-29T17:27:06.364Z,101165.75
2022-07-29T17:29:34.785Z,101161.34
2022-07-29T17:32:01.855Z,101161.84
2022-07-29T17:34:28.451Z,101157.19
2022-07-29T17:36:55.313Z,101163.81
2022-07-29T17:39:22.053Z,101161.47
2022-07-29T17:41:48.635Z,101163.53
2022-07-29T17:44:15.465Z,101168.66
2022-07-29T17:46:42.056Z,101171.06
2022-07-29T17:49:08.728Z,101177.75
2022-07-29T17:51:35.385Z,101182.22
2022-07-29T17:54:02.586Z,101185.53
2022-07-29T17:56:29.166Z,101178.69
2022-07-29T17:58:56.076Z,101184.31
2022-07-29T18:01:23.681Z,101181.91
2022-07-29T18:03:50.379Z,101183.50
2022-07-29T18:06:16.960Z,101183.94
2022-07-29T18:08:47.397Z,101187.19
2022-07-29T18:11:15.078Z,101191.56
2022-07-29T18:13:41.893Z,101190.41
2022-07-29T18:16:09.247Z,101188.25
2022-07-29T18:18:35.961Z,101197.31
2022-07-29T18:21:02.619Z,101196.97
2022-07-29T18:23:29.105Z,101201.31
2022-07-29T18:25:56.034Z,101197.50
2022-07-29T18:28:22.664Z,101196.63
2022-07-29T18:30:50.399Z,101195.69
2022-07-29T18:33:21.381Z,101194.78
2022-07-29T18:35:51.470Z,101190.00
2022-07-29T18:38:18.485Z,101192.75
2022-07-29T18:40:46.103Z,101195.09
2022-07-29T18:43:13.652Z,101196.28
2022-07-29T18:45:40.578Z,101186.31
2022-07-29T18:48:11.896Z,101192.97
2022-07-29T18:50:40.469Z,101183.78
2022-07-29T18:53:07.246Z,101195.50
2022-07-29T18:55:33.869Z,101193.53
2022-07-29T18:58:00.460Z,101203.97
2022-07-29T19:00:27.442Z,101200.91
2022-07-29T19:02:54.256Z,101202.56
2022-07-29T19:05:21.330Z,101201.25
2022-07-29T19:07:48.145Z,101197.72
2022-07-29T19:10:17.143Z,101195.59
2022-07-29T19:12:43.852Z,101206.00
2022-07-29T19:15:10.957Z,101204.19
2022-07-29T19:17:38.637Z,101210.28
2022-07-29T19:20:07.469Z,101207.66
2022-07-29T19:22:34.599Z,101203.97
2022-07-29T19:25:01.421Z,101209.88
2022-07-29T19:27:28.023Z,101211.16
2022-07-29T19:29:58.982Z,101217.28
2022-07-29T19:32:26.231Z,101215.13
2022-07-29T19:35:11.709Z,101217.34
2022-07-29T19:37:38.416Z,101218.63
2022-07-29T19:40:06.287Z,101221.25
2022-07-29T19:42:32.937Z,101223.47
2022-07-29T19:44:59.975Z,101224.13
2022-07-29T19:47:26.467Z,101225.09
2022-07-29T19:49:52.949Z,101228.66
2022-07-29T19:52:19.540Z,101226.19
2022-07-29T19:54:46.090Z,101231.22
2022-07-29T19:57:12.740Z,101240.47
2022-07-29T19:59:40.843Z,101239.88
2022-07-29T20:02:10.671Z,101246.47
2022-07-29T20:04:37.532Z,101243.91
2022-07-29T20:07:04.620Z,101243.94
2022-07-29T20:09:31.276Z,101257.41
2022-07-29T20:11:58.076Z,101243.78
2022-07-29T20:14:24.645Z,101250.19
2022-07-29T20:16:53.663Z,101257.88
2022-07-29T20:19:20.633Z,101253.63
2022-07-29T20:21:47.174Z,101252.34
2022-07-29T20:24:13.767Z,101259.88
2022-07-29T20:26:40.355Z,101264.22
2022-07-29T20:29:06.947Z,101260.91
2022-07-29T20:31:33.598Z,101265.13
2022-07-29T20:34:01.396Z,101263.53
2022-07-29T20:36:28.465Z,101266.03
2022-07-29T20:38:55.567Z,101256.94
2022-07-29T20:41:22.633Z,101261.16
2022-07-29T20:43:49.855Z,101261.13
2022-07-29T20:46:16.821Z,101260.47
2022-07-29T20:48:43.584Z,101267.81
2022-07-29T20:51:10.549Z,101260.13
2022-07-29T20:53:40.783Z,101265.38
2022-07-29T20:56:07.964Z,101274.56
2022-07-29T20:58:36.684Z,101274.25
2022-07-29T21:01:04.352Z,101269.19
2022-07-29T21:03:32.460Z,101273.72
2022-07-29T21:05:59.985Z,101269.78
2022-07-29T21:08:27.272Z,101271.31
2022-07-29T21:10:54.734Z,101271.41
2022-07-29T21:13:23.005Z,101272.78
2022-07-29T21:15:51.691Z,101269.31
2022-07-29T21:18:32.490Z,101274.56
2022-07-29T21:21:04.196Z,101279.66
2022-07-29T21:23:30.884Z,101277.47
2022-07-29T21:25:57.865Z,101284.44
2022-07-29T21:28:27.681Z,101289.72
2022-07-29T21:30:55.313Z,101287.81
2022-07-29T21:33:22.173Z,101286.53
2022-07-29T21:36:26.832Z,101284.75
2022-07-29T21:38:36.563Z,101288.78
2022-07-29T21:41:04.298Z,101296.56
2022-07-29T21:43:31.611Z,101294.34
2022-07-29T21:45:59.649Z,101302.53
2022-07-29T21:48:28.249Z,101305.81
2022-07-29T21:50:55.145Z,101304.66
2022-07-29T21:53:22.099Z,101304.34
2022-07-29T21:55:54.329Z,101309.63
2022-07-29T21:58:23.965Z,101300.66
2022-07-29T22:00:50.608Z,101310.00
2022-07-29T22:03:17.213Z,101308.66
2022-07-29T22:05:44.583Z,101298.31
2022-07-29T22:08:11.312Z,101303.72
2022-07-29T22:10:37.917Z,101297.63
2022-07-29T22:13:04.720Z,101305.28
2022-07-29T22:15:32.346Z,101302.47
2022-07-29T22:17:59.464Z,101288.09
2022-07-29T22:20:27.084Z,101295.28
2022-07-29T22:22:54.113Z,101298.88
2022-07-29T22:25:21.266Z,101295.72
2022-07-29T22:27:47.939Z,101305.53
2022-07-29T22:30:15.245Z,101299.69
2022-07-29T22:32:42.014Z,101300.03
2022-07-29T22:35:08.794Z,101293.50
2022-07-29T22:37:35.449Z,101287.91
2022-07-29T22:40:02.397Z,101296.78
2022-07-29T22:42:28.942Z,101285.19
2022-07-29T22:44:55.497Z,101284.06
2022-07-29T22:47:46.503Z,101284.84
2022-07-29T22:50:09.074Z,101282.94
2022-07-29T22:52:35.674Z,101288.22
2022-07-29T22:55:03.332Z,101289.91
2022-07-29T22:57:29.831Z,101280.66
2022-07-29T22:59:56.324Z,101279.63
2022-07-29T23:02:22.822Z,101289.41
2022-07-29T23:04:49.280Z,101286.81
2022-07-29T23:07:15.829Z,101287.25
2022-07-29T23:09:42.329Z,101286.03
2022-07-29T23:12:09.012Z,101284.88
2022-07-29T23:14:35.538Z,101278.84
2022-07-29T23:17:02.457Z,101278.94
2022-07-29T23:19:29.409Z,101279.72
2022-07-29T23:21:55.995Z,101279.72
2022-07-29T23:24:22.553Z,101278.28
2022-07-29T23:26:49.028Z,101284.66
2022-07-29T23:29:17.934Z,101274.31
2022-07-29T23:31:48.057Z,101274.31
2022-07-29T23:34:14.994Z,101277.69
2022-07-29T23:36:42.351Z,101272.53
2022-07-29T23:39:13.116Z,101273.19
2022-07-29T23:41:39.782Z,101276.06
2022-07-29T23:44:06.515Z,101275.75
2022-07-29T23:46:33.294Z,101269.06
2022-07-29T23:49:00.162Z,101270.16
2022-07-29T23:51:28.935Z,101262.19
2022-07-29T23:53:55.552Z,101269.97
2022-07-29T23:56:22.202Z,101256.28
2022-07-29T23:58:48.749Z,101255.03
